sensor_id;sensor_type;location;lat;lon;timestamp;P1;durP1;ratioP1;P2;durP2;ratioP2
62997;SDS011;55949;52.590;7.330;2023-03-01T00:00:16;7.10;;;4.25;;
62997;SDS011;55949;52.590;7.330;2023-03-01T00:01:18;6.35;;;4.38;;
62997;SDS011;55949;52.590;7.330;2023-03-01T00:02:21;6.20;;;4.03;;
62997;SDS011;55949;52.590;7.330;2023-03-01T00:03:21;8.35;;;4.28;;
62997;SDS011;55949;52.590;7.330;2023-03-01T00:04:22;7.28;;;5.43;;
62997;SDS011;55949;52.590;7.330;2023-03-01T00:05:23;5.85;;;4.20;;
62997;SDS011;55949;52.590;7.330;2023-03-01T00:06:24;5.88;;;4.57;;
62997;SDS011;55949;52.590;7.330;2023-03-01T00:07:26;9.48;;;4.88;;
62997;SDS011;55949;52.590;7.330;2023-03-01T00:08:26;6.15;;;4.43;;
62997;SDS011;55949;52.590;7.330;2023-03-01T00:09:27;7.10;;;4.25;;
62997;SDS011;55949;52.590;7.330;2023-03-01T00:10:28;7.80;;;4.15;;
62997;SDS011;55949;52.590;7.330;2023-03-01T00:11:29;6.07;;;3.95;;
62997;SDS011;55949;52.590;7.330;2023-03-01T00:12:31;6.35;;;4.07;;
62997;SDS011;55949;52.590;7.330;2023-03-01T00:13:32;7.38;;;4.20;;
62997;SDS011;55949;52.590;7.330;2023-03-01T00:14:34;6.95;;;4.10;;
62997;SDS011;55949;52.590;7.330;2023-03-01T00:15:39;6.03;;;4.13;;
62997;SDS011;55949;52.590;7.330;2023-03-01T00:16:41;6.72;;;4.35;;
62997;SDS011;55949;52.590;7.330;2023-03-01T00:17:43;5.95;;;3.70;;
62997;SDS011;55949;52.590;7.330;2023-03-01T00:18:44;8.73;;;4.22;;
62997;SDS011;55949;52.590;7.330;2023-03-01T00:19:45;6.95;;;4.10;;
62997;SDS011;55949;52.590;7.330;2023-03-01T00:20:50;7.43;;;4.40;;
62997;SDS011;55949;52.590;7.330;2023-03-01T00:21:54;10.55;;;4.43;;
62997;SDS011;55949;52.590;7.330;2023-03-01T00:22:55;5.40;;;3.65;;
62997;SDS011;55949;52.590;7.330;2023-03-01T00:23:56;6.35;;;3.95;;
62997;SDS011;55949;52.590;7.330;2023-03-01T00:24:57;5.97;;;3.67;;
62997;SDS011;55949;52.590;7.330;2023-03-01T00:25:57;6.03;;;3.65;;
62997;SDS011;55949;52.590;7.330;2023-03-01T00:26:58;6.25;;;4.00;;
62997;SDS011;55949;52.590;7.330;2023-03-01T00:27:59;8.05;;;4.00;;
62997;SDS011;55949;52.590;7.330;2023-03-01T00:29:00;6.65;;;3.92;;
62997;SDS011;55949;52.590;7.330;2023-03-01T00:30:00;7.53;;;4.07;;
62997;SDS011;55949;52.590;7.330;2023-03-01T00:31:20;6.53;;;4.68;;
62997;SDS011;55949;52.590;7.330;2023-03-01T00:32:23;7.47;;;3.88;;
62997;SDS011;55949;52.590;7.330;2023-03-01T00:33:23;7.43;;;4.03;;
62997;SDS011;55949;52.590;7.330;2023-03-01T00:34:24;6.72;;;3.97;;
62997;SDS011;55949;52.590;7.330;2023-03-01T00:35:25;6.85;;;4.20;;
62997;SDS011;55949;52.590;7.330;2023-03-01T00:36:26;6.50;;;4.18;;
62997;SDS011;55949;52.590;7.330;2023-03-01T00:37:29;9.27;;;4.75;;
62997;SDS011;55949;52.590;7.330;2023-03-01T00:38:30;5.25;;;3.97;;
62997;SDS011;55949;52.590;7.330;2023-03-01T00:39:31;4.60;;;3.65;;
62997;SDS011;55949;52.590;7.330;2023-03-01T00:40:33;5.82;;;4.00;;
62997;SDS011;55949;52.590;7.330;2023-03-01T00:41:35;6.07;;;4.20;;
62997;SDS011;55949;52.590;7.330;2023-03-01T00:42:36;7.20;;;4.47;;
62997;SDS011;55949;52.590;7.330;2023-03-01T00:43:36;6.68;;;4.10;;
62997;SDS011;55949;52.590;7.330;2023-03-01T00:44:37;6.75;;;4.53;;
62997;SDS011;55949;52.590;7.330;2023-03-01T00:45:38;6.10;;;3.85;;
62997;SDS011;55949;52.590;7.330;2023-03-01T00:46:39;6.63;;;3.58;;
62997;SDS011;55949;52.590;7.330;2023-03-01T00:47:39;6.70;;;4.32;;
62997;SDS011;55949;52.590;7.330;2023-03-01T00:48:40;7.72;;;4.13;;
62997;SDS011;55949;52.590;7.330;2023-03-01T00:49:41;7.28;;;4.60;;
62997;SDS011;55949;52.590;7.330;2023-03-01T00:50:42;6.07;;;4.13;;
62997;SDS011;55949;52.590;7.330;2023-03-01T00:51:43;7.18;;;4.28;;
62997;SDS011;55949;52.590;7.330;2023-03-01T00:52:43;6.95;;;4.55;;
62997;SDS011;55949;52.590;7.330;2023-03-01T00:53:45;7.20;;;4.30;;
62997;SDS011;55949;52.590;7.330;2023-03-01T00:54:46;8.73;;;5.15;;
62997;SDS011;55949;52.590;7.330;2023-03-01T00:55:47;7.82;;;5.30;;
62997;SDS011;55949;52.590;7.330;2023-03-01T00:56:47;7.85;;;4.70;;
62997;SDS011;55949;52.590;7.330;2023-03-01T00:57:48;8.15;;;4.38;;
62997;SDS011;55949;52.590;7.330;2023-03-01T00:58:49;7.63;;;4.47;;
62997;SDS011;55949;52.590;7.330;2023-03-01T00:59:49;9.45;;;5.10;;
62997;SDS011;55949;52.590;7.330;2023-03-01T01:00:52;7.63;;;4.60;;
62997;SDS011;55949;52.590;7.330;2023-03-01T01:01:52;8.05;;;5.43;;
62997;SDS011;55949;52.590;7.330;2023-03-01T01:02:53;8.40;;;4.28;;
62997;SDS011;55949;52.590;7.330;2023-03-01T01:04:04;7.43;;;4.70;;
62997;SDS011;55949;52.590;7.330;2023-03-01T01:05:07;7.97;;;4.22;;
62997;SDS011;55949;52.590;7.330;2023-03-01T01:06:12;8.55;;;4.22;;
62997;SDS011;55949;52.590;7.330;2023-03-01T01:07:15;6.95;;;4.60;;
62997;SDS011;55949;52.590;7.330;2023-03-01T01:08:15;7.78;;;4.20;;
62997;SDS011;55949;52.590;7.330;2023-03-01T01:09:17;6.78;;;4.18;;
62997;SDS011;55949;52.590;7.330;2023-03-01T01:10:17;5.65;;;3.95;;
62997;SDS011;55949;52.590;7.330;2023-03-01T01:11:21;5.72;;;3.50;;
62997;SDS011;55949;52.590;7.330;2023-03-01T01:12:23;7.15;;;3.92;;
62997;SDS011;55949;52.590;7.330;2023-03-01T01:13:24;5.47;;;4.15;;
62997;SDS011;55949;52.590;7.330;2023-03-01T01:14:25;5.65;;;3.80;;
62997;SDS011;55949;52.590;7.330;2023-03-01T01:15:26;6.45;;;4.18;;
62997;SDS011;55949;52.590;7.330;2023-03-01T01:16:27;7.05;;;4.07;;
62997;SDS011;55949;52.590;7.330;2023-03-01T01:17:28;7.30;;;4.22;;
62997;SDS011;55949;52.590;7.330;2023-03-01T01:18:29;5.47;;;3.97;;
62997;SDS011;55949;52.590;7.330;2023-03-01T01:19:30;5.30;;;4.05;;
62997;SDS011;55949;52.590;7.330;2023-03-01T01:20:31;5.43;;;3.95;;
62997;SDS011;55949;52.590;7.330;2023-03-01T01:21:31;5.10;;;3.60;;
62997;SDS011;55949;52.590;7.330;2023-03-01T01:22:32;6.10;;;4.10;;
62997;SDS011;55949;52.590;7.330;2023-03-01T01:23:33;7.28;;;4.32;;
62997;SDS011;55949;52.590;7.330;2023-03-01T01:24:34;5.50;;;3.80;;
62997;SDS011;55949;52.590;7.330;2023-03-01T01:25:35;8.85;;;4.38;;
62997;SDS011;55949;52.590;7.330;2023-03-01T01:26:37;7.70;;;4.68;;
62997;SDS011;55949;52.590;7.330;2023-03-01T01:27:37;7.80;;;4.85;;
62997;SDS011;55949;52.590;7.330;2023-03-01T01:28:38;7.10;;;4.45;;
62997;SDS011;55949;52.590;7.330;2023-03-01T01:29:39;8.05;;;4.05;;
62997;SDS011;55949;52.590;7.330;2023-03-01T01:30:42;6.28;;;4.30;;
62997;SDS011;55949;52.590;7.330;2023-03-01T01:31:42;6.40;;;4.22;;
62997;SDS011;55949;52.590;7.330;2023-03-01T01:32:43;9.10;;;4.93;;
62997;SDS011;55949;52.590;7.330;2023-03-01T01:33:44;7.60;;;4.68;;
62997;SDS011;55949;52.590;7.330;2023-03-01T01:34:45;8.80;;;4.68;;
62997;SDS011;55949;52.590;7.330;2023-03-01T01:35:46;7.25;;;4.22;;
62997;SDS011;55949;52.590;7.330;2023-03-01T01:36:47;6.53;;;3.90;;
62997;SDS011;55949;52.590;7.330;2023-03-01T01:37:49;8.40;;;4.63;;
62997;SDS011;55949;52.590;7.330;2023-03-01T01:38:50;7.00;;;4.15;;
62997;SDS011;55949;52.590;7.330;2023-03-01T01:39:51;5.70;;;4.40;;
62997;SDS011;55949;52.590;7.330;2023-03-01T01:40:52;7.78;;;4.78;;
62997;SDS011;55949;52.590;7.330;2023-03-01T01:41:52;8.75;;;4.88;;
62997;SDS011;55949;52.590;7.330;2023-03-01T01:42:53;7.95;;;4.97;;
62997;SDS011;55949;52.590;7.330;2023-03-01T01:45:37;6.70;;;4.63;;
62997;SDS011;55949;52.590;7.330;2023-03-01T01:47:20;7.10;;;4.28;;
62997;SDS011;55949;52.590;7.330;2023-03-01T01:48:28;9.43;;;5.05;;
62997;SDS011;55949;52.590;7.330;2023-03-01T01:49:41;8.48;;;4.97;;
62997;SDS011;55949;52.590;7.330;2023-03-01T01:50:44;7.80;;;4.93;;
62997;SDS011;55949;52.590;7.330;2023-03-01T01:51:48;9.65;;;4.70;;
62997;SDS011;55949;52.590;7.330;2023-03-01T01:52:51;7.43;;;4.68;;
62997;SDS011;55949;52.590;7.330;2023-03-01T01:53:54;8.63;;;5.05;;
62997;SDS011;55949;52.590;7.330;2023-03-01T01:55:02;7.05;;;5.03;;
62997;SDS011;55949;52.590;7.330;2023-03-01T01:56:29;7.70;;;4.68;;
62997;SDS011;55949;52.590;7.330;2023-03-01T01:57:46;8.70;;;4.70;;
62997;SDS011;55949;52.590;7.330;2023-03-01T01:58:52;6.60;;;4.55;;
62997;SDS011;55949;52.590;7.330;2023-03-01T01:59:54;6.80;;;4.10;;
62997;SDS011;55949;52.590;7.330;2023-03-01T02:00:59;7.28;;;4.68;;
62997;SDS011;55949;52.590;7.330;2023-03-01T02:02:02;7.78;;;4.78;;
62997;SDS011;55949;52.590;7.330;2023-03-01T02:03:08;6.72;;;4.20;;
62997;SDS011;55949;52.590;7.330;2023-03-01T02:04:11;6.53;;;4.78;;
62997;SDS011;55949;52.590;7.330;2023-03-01T02:05:24;7.68;;;4.43;;
62997;SDS011;55949;52.590;7.330;2023-03-01T02:06:37;6.03;;;4.43;;
62997;SDS011;55949;52.590;7.330;2023-03-01T02:07:51;6.28;;;3.85;;
62997;SDS011;55949;52.590;7.330;2023-03-01T02:08:53;6.93;;;4.45;;
62997;SDS011;55949;52.590;7.330;2023-03-01T02:09:53;6.65;;;4.15;;
62997;SDS011;55949;52.590;7.330;2023-03-01T02:10:54;8.05;;;4.78;;
62997;SDS011;55949;52.590;7.330;2023-03-01T02:11:56;8.02;;;5.20;;
62997;SDS011;55949;52.590;7.330;2023-03-01T02:12:58;6.95;;;4.38;;
62997;SDS011;55949;52.590;7.330;2023-03-01T02:13:59;7.50;;;4.70;;
62997;SDS011;55949;52.590;7.330;2023-03-01T02:15:00;8.07;;;5.07;;
62997;SDS011;55949;52.590;7.330;2023-03-01T02:16:05;7.72;;;4.78;;
62997;SDS011;55949;52.590;7.330;2023-03-01T02:17:10;7.97;;;4.57;;
62997;SDS011;55949;52.590;7.330;2023-03-01T02:18:12;6.43;;;4.40;;
62997;SDS011;55949;52.590;7.330;2023-03-01T02:19:27;7.15;;;4.13;;
62997;SDS011;55949;52.590;7.330;2023-03-01T02:23:28;8.48;;;4.55;;
62997;SDS011;55949;52.590;7.330;2023-03-01T02:25:38;6.93;;;4.18;;
62997;SDS011;55949;52.590;7.330;2023-03-01T02:26:53;8.90;;;4.15;;
62997;SDS011;55949;52.590;7.330;2023-03-01T02:29:18;6.32;;;3.80;;
62997;SDS011;55949;52.590;7.330;2023-03-01T02:30:19;5.90;;;4.07;;
62997;SDS011;55949;52.590;7.330;2023-03-01T02:31:22;7.57;;;4.55;;
62997;SDS011;55949;52.590;7.330;2023-03-01T02:32:41;7.25;;;4.53;;
62997;SDS011;55949;52.590;7.330;2023-03-01T02:33:42;6.60;;;3.90;;
62997;SDS011;55949;52.590;7.330;2023-03-01T02:34:45;5.50;;;3.88;;
62997;SDS011;55949;52.590;7.330;2023-03-01T02:35:46;6.40;;;4.20;;
62997;SDS011;55949;52.590;7.330;2023-03-01T02:36:47;6.65;;;4.15;;
62997;SDS011;55949;52.590;7.330;2023-03-01T02:38:20;10.13;;;4.50;;
62997;SDS011;55949;52.590;7.330;2023-03-01T02:39:36;7.53;;;3.65;;
62997;SDS011;55949;52.590;7.330;2023-03-01T02:40:41;6.88;;;3.67;;
62997;SDS011;55949;52.590;7.330;2023-03-01T02:41:49;7.15;;;4.22;;
62997;SDS011;55949;52.590;7.330;2023-03-01T02:42:53;6.05;;;3.78;;
62997;SDS011;55949;52.590;7.330;2023-03-01T02:43:56;8.52;;;4.85;;
62997;SDS011;55949;52.590;7.330;2023-03-01T02:44:56;6.70;;;4.30;;
62997;SDS011;55949;52.590;7.330;2023-03-01T02:45:58;8.23;;;4.57;;
62997;SDS011;55949;52.590;7.330;2023-03-01T02:47:03;5.65;;;3.97;;
62997;SDS011;55949;52.590;7.330;2023-03-01T02:48:06;8.98;;;4.07;;
62997;SDS011;55949;52.590;7.330;2023-03-01T02:49:20;8.15;;;4.47;;
62997;SDS011;55949;52.590;7.330;2023-03-01T02:53:07;6.88;;;4.07;;
62997;SDS011;55949;52.590;7.330;2023-03-01T02:54:25;6.53;;;3.97;;
62997;SDS011;55949;52.590;7.330;2023-03-01T02:55:33;7.03;;;4.03;;
62997;SDS011;55949;52.590;7.330;2023-03-01T02:56:34;5.70;;;4.20;;
62997;SDS011;55949;52.590;7.330;2023-03-01T02:57:36;5.22;;;3.60;;
62997;SDS011;55949;52.590;7.330;2023-03-01T02:58:40;6.35;;;4.03;;
62997;SDS011;55949;52.590;7.330;2023-03-01T02:59:45;6.57;;;4.15;;
62997;SDS011;55949;52.590;7.330;2023-03-01T03:00:45;6.38;;;4.28;;
62997;SDS011;55949;52.590;7.330;2023-03-01T03:01:49;7.43;;;4.82;;
62997;SDS011;55949;52.590;7.330;2023-03-01T03:02:50;5.57;;;4.05;;
62997;SDS011;55949;52.590;7.330;2023-03-01T03:03:52;6.15;;;4.22;;
62997;SDS011;55949;52.590;7.330;2023-03-01T03:04:53;7.78;;;4.38;;
62997;SDS011;55949;52.590;7.330;2023-03-01T03:05:53;5.18;;;3.55;;
62997;SDS011;55949;52.590;7.330;2023-03-01T03:06:54;7.20;;;4.13;;
62997;SDS011;55949;52.590;7.330;2023-03-01T03:07:55;6.68;;;4.03;;
62997;SDS011;55949;52.590;7.330;2023-03-01T03:08:56;6.20;;;4.05;;
62997;SDS011;55949;52.590;7.330;2023-03-01T03:09:57;7.45;;;4.43;;
62997;SDS011;55949;52.590;7.330;2023-03-01T03:10:58;6.15;;;4.40;;
62997;SDS011;55949;52.590;7.330;2023-03-01T03:11:58;5.75;;;3.65;;
62997;SDS011;55949;52.590;7.330;2023-03-01T03:13:01;6.15;;;3.67;;
62997;SDS011;55949;52.590;7.330;2023-03-01T03:14:03;7.18;;;4.13;;
62997;SDS011;55949;52.590;7.330;2023-03-01T03:15:05;9.02;;;4.00;;
62997;SDS011;55949;52.590;7.330;2023-03-01T03:16:08;7.10;;;4.20;;
62997;SDS011;55949;52.590;7.330;2023-03-01T03:17:09;6.95;;;4.03;;
62997;SDS011;55949;52.590;7.330;2023-03-01T03:18:12;5.38;;;3.95;;
62997;SDS011;55949;52.590;7.330;2023-03-01T03:19:16;8.85;;;4.45;;
62997;SDS011;55949;52.590;7.330;2023-03-01T03:20:20;7.43;;;4.10;;
62997;SDS011;55949;52.590;7.330;2023-03-01T03:21:22;6.90;;;4.22;;
62997;SDS011;55949;52.590;7.330;2023-03-01T03:22:22;5.50;;;3.70;;
62997;SDS011;55949;52.590;7.330;2023-03-01T03:23:23;8.07;;;4.70;;
62997;SDS011;55949;52.590;7.330;2023-03-01T03:24:24;8.00;;;4.30;;
62997;SDS011;55949;52.590;7.330;2023-03-01T03:25:25;6.10;;;3.65;;
62997;SDS011;55949;52.590;7.330;2023-03-01T03:26:27;7.85;;;4.65;;
62997;SDS011;55949;52.590;7.330;2023-03-01T03:27:28;7.75;;;4.10;;
62997;SDS011;55949;52.590;7.330;2023-03-01T03:28:28;5.53;;;3.80;;
62997;SDS011;55949;52.590;7.330;2023-03-01T03:29:33;8.95;;;3.92;;
62997;SDS011;55949;52.590;7.330;2023-03-01T03:30:35;5.20;;;3.50;;
62997;SDS011;55949;52.590;7.330;2023-03-01T03:31:38;6.07;;;3.75;;
62997;SDS011;55949;52.590;7.330;2023-03-01T03:32:39;5.35;;;3.60;;
62997;SDS011;55949;52.590;7.330;2023-03-01T03:33:42;6.90;;;3.67;;
62997;SDS011;55949;52.590;7.330;2023-03-01T03:34:42;5.25;;;3.45;;
62997;SDS011;55949;52.590;7.330;2023-03-01T03:35:44;8.45;;;4.00;;
62997;SDS011;55949;52.590;7.330;2023-03-01T03:36:46;5.97;;;4.07;;
62997;SDS011;55949;52.590;7.330;2023-03-01T03:37:47;8.48;;;4.22;;
62997;SDS011;55949;52.590;7.330;2023-03-01T03:39:02;6.32;;;3.65;;
62997;SDS011;55949;52.590;7.330;2023-03-01T03:40:06;9.02;;;4.50;;
62997;SDS011;55949;52.590;7.330;2023-03-01T03:41:15;5.93;;;4.07;;
62997;SDS011;55949;52.590;7.330;2023-03-01T03:42:16;6.95;;;4.25;;
62997;SDS011;55949;52.590;7.330;2023-03-01T03:44:19;7.65;;;4.55;;
62997;SDS011;55949;52.590;7.330;2023-03-01T03:45:20;8.95;;;3.65;;
62997;SDS011;55949;52.590;7.330;2023-03-01T03:46:21;6.70;;;4.13;;
62997;SDS011;55949;52.590;7.330;2023-03-01T03:47:22;6.80;;;4.78;;
62997;SDS011;55949;52.590;7.330;2023-03-01T03:48:23;8.75;;;4.90;;
62997;SDS011;55949;52.590;7.330;2023-03-01T03:49:24;9.60;;;4.60;;
62997;SDS011;55949;52.590;7.330;2023-03-01T03:50:25;7.20;;;4.47;;
62997;SDS011;55949;52.590;7.330;2023-03-01T03:51:26;7.00;;;4.38;;
62997;SDS011;55949;52.590;7.330;2023-03-01T03:52:26;7.93;;;4.60;;
62997;SDS011;55949;52.590;7.330;2023-03-01T03:53:28;11.10;;;4.18;;
62997;SDS011;55949;52.590;7.330;2023-03-01T03:54:29;6.50;;;4.40;;
62997;SDS011;55949;52.590;7.330;2023-03-01T03:55:30;6.80;;;4.40;;
62997;SDS011;55949;52.590;7.330;2023-03-01T03:56:31;8.13;;;4.50;;
62997;SDS011;55949;52.590;7.330;2023-03-01T03:57:31;8.40;;;4.50;;
62997;SDS011;55949;52.590;7.330;2023-03-01T03:58:32;7.80;;;4.88;;
62997;SDS011;55949;52.590;7.330;2023-03-01T03:59:33;5.88;;;4.18;;
62997;SDS011;55949;52.590;7.330;2023-03-01T04:00:34;8.25;;;4.53;;
62997;SDS011;55949;52.590;7.330;2023-03-01T04:01:35;6.30;;;4.13;;
62997;SDS011;55949;52.590;7.330;2023-03-01T04:02:36;7.43;;;4.57;;
62997;SDS011;55949;52.590;7.330;2023-03-01T04:03:37;6.70;;;4.65;;
62997;SDS011;55949;52.590;7.330;2023-03-01T04:04:37;5.80;;;4.05;;
62997;SDS011;55949;52.590;7.330;2023-03-01T04:05:38;5.60;;;3.75;;
62997;SDS011;55949;52.590;7.330;2023-03-01T04:06:40;7.68;;;4.18;;
62997;SDS011;55949;52.590;7.330;2023-03-01T04:07:41;6.88;;;4.38;;
62997;SDS011;55949;52.590;7.330;2023-03-01T04:08:42;6.22;;;3.78;;
62997;SDS011;55949;52.590;7.330;2023-03-01T04:09:43;5.68;;;3.47;;
62997;SDS011;55949;52.590;7.330;2023-03-01T04:10:44;6.72;;;4.32;;
62997;SDS011;55949;52.590;7.330;2023-03-01T04:11:47;5.78;;;3.78;;
62997;SDS011;55949;52.590;7.330;2023-03-01T04:12:48;6.75;;;3.65;;
62997;SDS011;55949;52.590;7.330;2023-03-01T04:13:48;7.78;;;3.97;;
62997;SDS011;55949;52.590;7.330;2023-03-01T04:14:49;5.35;;;3.53;;
62997;SDS011;55949;52.590;7.330;2023-03-01T04:15:50;5.30;;;3.85;;
62997;SDS011;55949;52.590;7.330;2023-03-01T04:16:51;6.88;;;4.13;;
62997;SDS011;55949;52.590;7.330;2023-03-01T04:17:52;7.82;;;4.35;;
62997;SDS011;55949;52.590;7.330;2023-03-01T04:18:54;5.75;;;4.05;;
62997;SDS011;55949;52.590;7.330;2023-03-01T04:19:55;8.13;;;4.32;;
62997;SDS011;55949;52.590;7.330;2023-03-01T04:20:56;6.18;;;4.43;;
62997;SDS011;55949;52.590;7.330;2023-03-01T04:21:56;6.68;;;4.38;;
62997;SDS011;55949;52.590;7.330;2023-03-01T04:22:58;6.47;;;4.30;;
62997;SDS011;55949;52.590;7.330;2023-03-01T07:35:36;9.75;;;5.80;;
62997;SDS011;55949;52.590;7.330;2023-03-01T07:36:37;14.32;;;7.13;;
62997;SDS011;55949;52.590;7.330;2023-03-01T07:37:39;11.98;;;6.85;;
62997;SDS011;55949;52.590;7.330;2023-03-01T07:38:40;11.48;;;6.25;;
62997;SDS011;55949;52.590;7.330;2023-03-01T07:39:41;10.43;;;6.88;;
62997;SDS011;55949;52.590;7.330;2023-03-01T07:40:42;12.02;;;7.03;;
62997;SDS011;55949;52.590;7.330;2023-03-01T07:41:42;9.90;;;6.90;;
62997;SDS011;55949;52.590;7.330;2023-03-01T07:42:43;14.02;;;9.15;;
62997;SDS011;55949;52.590;7.330;2023-03-01T07:43:44;15.80;;;8.27;;
62997;SDS011;55949;52.590;7.330;2023-03-01T07:44:45;15.82;;;8.68;;
62997;SDS011;55949;52.590;7.330;2023-03-01T07:45:46;15.85;;;9.25;;
62997;SDS011;55949;52.590;7.330;2023-03-01T07:46:46;13.13;;;8.40;;
62997;SDS011;55949;52.590;7.330;2023-03-01T07:47:47;13.48;;;8.52;;
62997;SDS011;55949;52.590;7.330;2023-03-01T07:48:50;11.98;;;7.82;;
62997;SDS011;55949;52.590;7.330;2023-03-01T07:49:50;13.63;;;8.65;;
62997;SDS011;55949;52.590;7.330;2023-03-01T07:50:51;10.63;;;7.78;;
62997;SDS011;55949;52.590;7.330;2023-03-01T07:51:52;15.57;;;8.00;;
62997;SDS011;55949;52.590;7.330;2023-03-01T07:52:53;12.25;;;7.78;;
62997;SDS011;55949;52.590;7.330;2023-03-01T07:53:53;10.57;;;7.07;;
62997;SDS011;55949;52.590;7.330;2023-03-01T07:54:54;10.57;;;7.03;;
62997;SDS011;55949;52.590;7.330;2023-03-01T07:56:05;13.95;;;7.75;;
62997;SDS011;55949;52.590;7.330;2023-03-01T07:57:07;10.35;;;6.78;;
62997;SDS011;55949;52.590;7.330;2023-03-01T07:58:08;11.30;;;7.30;;
62997;SDS011;55949;52.590;7.330;2023-03-01T07:59:09;12.02;;;7.55;;
62997;SDS011;55949;52.590;7.330;2023-03-01T08:00:10;10.55;;;7.47;;
62997;SDS011;55949;52.590;7.330;2023-03-01T08:01:12;11.57;;;7.05;;
62997;SDS011;55949;52.590;7.330;2023-03-01T08:02:15;13.02;;;7.85;;
62997;SDS011;55949;52.590;7.330;2023-03-01T08:03:15;12.13;;;7.90;;
62997;SDS011;55949;52.590;7.330;2023-03-01T08:04:16;13.25;;;7.85;;
62997;SDS011;55949;52.590;7.330;2023-03-01T08:05:17;11.23;;;8.30;;
62997;SDS011;55949;52.590;7.330;2023-03-01T08:06:18;12.50;;;7.63;;
62997;SDS011;55949;52.590;7.330;2023-03-01T08:07:18;12.02;;;7.90;;
62997;SDS011;55949;52.590;7.330;2023-03-01T08:08:19;12.02;;;7.20;;
62997;SDS011;55949;52.590;7.330;2023-03-01T08:09:20;11.18;;;6.43;;
62997;SDS011;55949;52.590;7.330;2023-03-01T08:10:21;11.85;;;6.95;;
62997;SDS011;55949;52.590;7.330;2023-03-01T08:11:21;11.95;;;6.95;;
62997;SDS011;55949;52.590;7.330;2023-03-01T08:12:23;10.68;;;7.13;;
62997;SDS011;55949;52.590;7.330;2023-03-01T08:13:24;12.80;;;7.68;;
62997;SDS011;55949;52.590;7.330;2023-03-01T08:14:25;11.88;;;7.53;;
62997;SDS011;55949;52.590;7.330;2023-03-01T08:15:25;14.13;;;7.65;;
62997;SDS011;55949;52.590;7.330;2023-03-01T08:16:26;11.70;;;6.95;;
62997;SDS011;55949;52.590;7.330;2023-03-01T08:17:27;12.13;;;8.05;;
62997;SDS011;55949;52.590;7.330;2023-03-01T08:18:27;16.80;;;8.00;;
62997;SDS011;55949;52.590;7.330;2023-03-01T08:19:28;11.35;;;8.02;;
62997;SDS011;55949;52.590;7.330;2023-03-01T08:20:29;11.68;;;7.88;;
62997;SDS011;55949;52.590;7.330;2023-03-01T08:21:30;13.43;;;8.40;;
62997;SDS011;55949;52.590;7.330;2023-03-01T08:22:31;12.65;;;8.02;;
62997;SDS011;55949;52.590;7.330;2023-03-01T08:23:31;11.38;;;7.95;;
62997;SDS011;55949;52.590;7.330;2023-03-01T08:24:32;14.30;;;9.10;;
62997;SDS011;55949;52.590;7.330;2023-03-01T08:25:33;13.60;;;8.23;;
62997;SDS011;55949;52.590;7.330;2023-03-01T08:26:33;13.65;;;8.80;;
62997;SDS011;55949;52.590;7.330;2023-03-01T08:27:34;11.52;;;7.75;;
62997;SDS011;55949;52.590;7.330;2023-03-01T08:28:35;11.95;;;8.13;;
62997;SDS011;55949;52.590;7.330;2023-03-01T08:29:36;16.15;;;8.40;;
62997;SDS011;55949;52.590;7.330;2023-03-01T08:30:37;13.63;;;8.25;;
62997;SDS011;55949;52.590;7.330;2023-03-01T08:31:39;10.88;;;7.50;;
62997;SDS011;55949;52.590;7.330;2023-03-01T08:32:40;10.27;;;7.55;;
62997;SDS011;55949;52.590;7.330;2023-03-01T08:33:40;11.80;;;8.13;;
62997;SDS011;55949;52.590;7.330;2023-03-01T08:34:41;11.60;;;7.82;;
62997;SDS011;55949;52.590;7.330;2023-03-01T08:35:42;12.48;;;7.32;;
62997;SDS011;55949;52.590;7.330;2023-03-01T08:36:43;11.57;;;7.30;;
62997;SDS011;55949;52.590;7.330;2023-03-01T08:37:45;13.90;;;8.15;;
62997;SDS011;55949;52.590;7.330;2023-03-01T08:38:46;11.55;;;8.07;;
62997;SDS011;55949;52.590;7.330;2023-03-01T08:39:47;12.25;;;7.80;;
62997;SDS011;55949;52.590;7.330;2023-03-01T08:40:47;11.52;;;8.43;;
62997;SDS011;55949;52.590;7.330;2023-03-01T08:41:48;14.27;;;8.10;;
62997;SDS011;55949;52.590;7.330;2023-03-01T08:42:49;11.80;;;8.52;;
62997;SDS011;55949;52.590;7.330;2023-03-01T08:43:49;12.10;;;8.25;;
62997;SDS011;55949;52.590;7.330;2023-03-01T08:44:50;14.60;;;8.65;;
62997;SDS011;55949;52.590;7.330;2023-03-01T08:45:51;12.73;;;7.85;;
62997;SDS011;55949;52.590;7.330;2023-03-01T08:46:52;13.63;;;8.45;;
62997;SDS011;55949;52.590;7.330;2023-03-01T08:47:54;13.43;;;8.85;;
62997;SDS011;55949;52.590;7.330;2023-03-01T08:48:55;11.73;;;7.80;;
62997;SDS011;55949;52.590;7.330;2023-03-01T08:49:55;17.42;;;8.13;;
62997;SDS011;55949;52.590;7.330;2023-03-01T08:50:56;10.75;;;7.60;;
62997;SDS011;55949;52.590;7.330;2023-03-01T08:51:57;17.60;;;8.02;;
62997;SDS011;55949;52.590;7.330;2023-03-01T08:53:16;11.27;;;7.32;;
62997;SDS011;55949;52.590;7.330;2023-03-01T08:54:18;11.98;;;8.20;;
62997;SDS011;55949;52.590;7.330;2023-03-01T08:55:19;10.85;;;7.60;;
62997;SDS011;55949;52.590;7.330;2023-03-01T08:56:20;13.60;;;7.82;;
62997;SDS011;55949;52.590;7.330;2023-03-01T08:57:21;10.80;;;7.82;;
62997;SDS011;55949;52.590;7.330;2023-03-01T08:58:22;14.95;;;7.68;;
62997;SDS011;55949;52.590;7.330;2023-03-01T08:59:22;11.85;;;7.72;;
62997;SDS011;55949;52.590;7.330;2023-03-01T09:00:25;11.93;;;7.20;;
62997;SDS011;55949;52.590;7.330;2023-03-01T09:01:26;11.02;;;6.82;;
62997;SDS011;55949;52.590;7.330;2023-03-01T09:02:26;11.23;;;7.13;;
62997;SDS011;55949;52.590;7.330;2023-03-01T09:03:27;12.30;;;7.40;;
62997;SDS011;55949;52.590;7.330;2023-03-01T09:04:28;10.27;;;6.53;;
62997;SDS011;55949;52.590;7.330;2023-03-01T09:05:31;9.60;;;6.35;;
62997;SDS011;55949;52.590;7.330;2023-03-01T09:06:33;11.43;;;6.68;;
62997;SDS011;55949;52.590;7.330;2023-03-01T09:07:34;8.32;;;5.85;;
62997;SDS011;55949;52.590;7.330;2023-03-01T09:08:35;9.77;;;6.63;;
62997;SDS011;55949;52.590;7.330;2023-03-01T09:09:40;10.88;;;6.30;;
62997;SDS011;55949;52.590;7.330;2023-03-01T09:10:41;8.75;;;6.18;;
62997;SDS011;55949;52.590;7.330;2023-03-01T09:11:42;12.75;;;6.03;;
62997;SDS011;55949;52.590;7.330;2023-03-01T09:12:45;10.07;;;5.70;;
62997;SDS011;55949;52.590;7.330;2023-03-01T09:13:46;9.82;;;5.97;;
62997;SDS011;55949;52.590;7.330;2023-03-01T09:14:49;8.85;;;5.38;;
62997;SDS011;55949;52.590;7.330;2023-03-01T09:15:49;8.77;;;5.22;;
62997;SDS011;55949;52.590;7.330;2023-03-01T09:16:50;8.98;;;5.65;;
62997;SDS011;55949;52.590;7.330;2023-03-01T09:17:51;8.73;;;5.10;;
62997;SDS011;55949;52.590;7.330;2023-03-01T09:18:52;7.82;;;4.88;;
62997;SDS011;55949;52.590;7.330;2023-03-01T09:19:54;8.15;;;4.80;;
62997;SDS011;55949;52.590;7.330;2023-03-01T09:21:14;16.42;;;5.18;;
62997;SDS011;55949;52.590;7.330;2023-03-01T09:22:15;7.97;;;4.82;;
62997;SDS011;55949;52.590;7.330;2023-03-01T09:23:16;9.95;;;5.30;;
62997;SDS011;55949;52.590;7.330;2023-03-01T09:24:18;8.52;;;5.32;;
62997;SDS011;55949;52.590;7.330;2023-03-01T09:25:20;7.88;;;4.78;;
62997;SDS011;55949;52.590;7.330;2023-03-01T09:26:21;6.75;;;4.72;;
62997;SDS011;55949;52.590;7.330;2023-03-01T09:27:23;7.95;;;4.85;;
62997;SDS011;55949;52.590;7.330;2023-03-01T09:28:25;6.63;;;4.70;;
62997;SDS011;55949;52.590;7.330;2023-03-01T09:29:25;8.38;;;4.45;;
62997;SDS011;55949;52.590;7.330;2023-03-01T09:30:26;8.57;;;4.82;;
62997;SDS011;55949;52.590;7.330;2023-03-01T09:31:27;6.43;;;4.47;;
62997;SDS011;55949;52.590;7.330;2023-03-01T09:32:29;10.02;;;4.95;;
62997;SDS011;55949;52.590;7.330;2023-03-01T09:33:31;7.72;;;4.70;;
62997;SDS011;55949;52.590;7.330;2023-03-01T09:34:32;8.57;;;4.55;;
62997;SDS011;55949;52.590;7.330;2023-03-01T09:36:00;7.60;;;4.50;;
62997;SDS011;55949;52.590;7.330;2023-03-01T09:37:05;6.20;;;4.13;;